Lemon Cove, CA

2:12 AM PDT on April 27, 2017 (GMT -0700)
MKAWC1 | | Change Station

Elev 537 ft 36.42 °N, 119.01 °W | Updated 56 minutes ago

Clear
Clear
60.0 °F
Feels Like 60.0 °F
N
2.0
Wind Variable Wind from SSE

Today
High -- | Low -- °F
--% Chance of Precip.
Yesterday
High -- | Low -- °F
Precip. -- in
Pressure 29.97 in
Visibility 10.0 miles
Clouds Clear
Dew Point 53.0 °F
Humidity 79%
Rainfall in
Snow Depth Not available.
6:06 AM 7:40 PM
New Moon, 1% visible
METAR KVIS 270856Z AUTO 31007KT 10SM CLR 14/13 A2995 RMK AO2 SLP147 T01440128 58003
Pressure 29.97 in
Visibility 10.0 miles
Clouds Clear
Dew Point 53.0 °F
Humidity 79%
Rainfall in
Snow Depth Not available.
6:06 AM 7:40 PM
New Moon, 1% visible
METAR KVIS 270856Z AUTO 31007KT 10SM CLR 14/13 A2995 RMK AO2 SLP147 T01440128 58003

Get Severe Weather Alerts

Thanks for signing up!

Be on the lookout for a verification email in your inbox.

You'll start receiving the daily forecast at 8 AM.

×

10-Day Weather Forecast

Almanac

Astronomy

Apr. 27, 2017 Rise Set
Actual Time
Civil Twilight
Nautical Twilight
Astronomical Twilight
Moon
Length of Visible Light
Length of Day
Tomorrow will be .
, % of the Moon is Illuminated

Today's Extremes

State Highs State Lows

Community

WunderPhotos

WunderBlog® & News

Nearby

Air Quality

  Air Quality AQ Index Pollutant
Not available.

Snow Depth

Station Depth Elevation

Earthquake Activity

City Distance Mag. Time & Date
Minimum magnitude displayed is 2.5.

Coastal Water Temperatures

Place Temperature

Stations

Nearby Weather Stations

Station Location Temp. Windchill Dew Point Humidity Wind Precip. Elev Updated Type
                   

Watches & Warnings

There are currently no watches in effect.